sensor_id;sensor_type;location;lat;lon;timestamp;pressure;altitude;pressure_sealevel;temperature;humidity
73671;BME280;61968;48.178;11.566;2023-04-25T00:01:05;95140.63;;;10.00;35.60
73671;BME280;61968;48.178;11.566;2023-04-25T00:03:34;95132.88;;;9.93;36.02
73671;BME280;61968;48.178;11.566;2023-04-25T00:06:02;95138.09;;;10.05;36.42
73671;BME280;61968;48.178;11.566;2023-04-25T00:08:28;95125.91;;;10.43;36.37
73671;BME280;61968;48.178;11.566;2023-04-25T00:10:55;95131.00;;;10.66;35.74
73671;BME280;61968;48.178;11.566;2023-04-25T00:13:21;95138.81;;;10.56;35.30
73671;BME280;61968;48.178;11.566;2023-04-25T00:15:48;95139.28;;;10.31;35.00
73671;BME280;61968;48.178;11.566;2023-04-25T00:18:15;95144.19;;;10.44;35.99
73671;BME280;61968;48.178;11.566;2023-04-25T00:20:43;95146.22;;;10.37;34.80
73671;BME280;61968;48.178;11.566;2023-04-25T00:23:13;95142.31;;;10.23;35.93
73671;BME280;61968;48.178;11.566;2023-04-25T00:25:43;95144.44;;;10.43;36.35
73671;BME280;61968;48.178;11.566;2023-04-25T00:28:09;95145.97;;;10.38;35.49
73671;BME280;61968;48.178;11.566;2023-04-25T00:30:36;95142.25;;;10.01;35.77
73671;BME280;61968;48.178;11.566;2023-04-25T00:33:02;95149.44;;;10.05;35.76
73671;BME280;61968;48.178;11.566;2023-04-25T00:35:29;95149.44;;;10.22;35.69
73671;BME280;61968;48.178;11.566;2023-04-25T00:37:55;95144.56;;;10.14;36.08
73671;BME280;61968;48.178;11.566;2023-04-25T00:40:23;95137.28;;;9.87;36.12
73671;BME280;61968;48.178;11.566;2023-04-25T00:42:51;95137.19;;;10.16;36.86
73671;BME280;61968;48.178;11.566;2023-04-25T00:45:18;95129.22;;;10.33;36.03
73671;BME280;61968;48.178;11.566;2023-04-25T00:47:45;95135.47;;;10.44;35.46
73671;BME280;61968;48.178;11.566;2023-04-25T00:50:13;95133.81;;;10.37;35.09
73671;BME280;61968;48.178;11.566;2023-04-25T00:52:41;95133.34;;;10.24;35.92
73671;BME280;61968;48.178;11.566;2023-04-25T00:55:09;95129.19;;;10.28;36.27
73671;BME280;61968;48.178;11.566;2023-04-25T00:57:38;95128.78;;;10.58;35.52
73671;BME280;61968;48.178;11.566;2023-04-25T01:00:06;95117.25;;;10.64;34.89
73671;BME280;61968;48.178;11.566;2023-04-25T01:02:35;95117.72;;;10.61;35.41
73671;BME280;61968;48.178;11.566;2023-04-25T01:05:02;95123.13;;;10.71;34.82
73671;BME280;61968;48.178;11.566;2023-04-25T01:07:29;95118.56;;;10.67;34.69
73671;BME280;61968;48.178;11.566;2023-04-25T01:09:56;95122.84;;;10.68;35.58
73671;BME280;61968;48.178;11.566;2023-04-25T01:12:22;95126.97;;;10.80;35.28
73671;BME280;61968;48.178;11.566;2023-04-25T01:14:50;95123.63;;;10.68;35.38
73671;BME280;61968;48.178;11.566;2023-04-25T01:17:17;95127.00;;;10.63;35.38
73671;BME280;61968;48.178;11.566;2023-04-25T01:19:44;95125.84;;;10.76;35.13
73671;BME280;61968;48.178;11.566;2023-04-25T01:22:15;95123.78;;;10.78;34.95
73671;BME280;61968;48.178;11.566;2023-04-25T01:24:42;95118.56;;;10.83;34.45
73671;BME280;61968;48.178;11.566;2023-04-25T01:27:09;95118.44;;;10.95;34.96
73671;BME280;61968;48.178;11.566;2023-04-25T01:29:36;95124.00;;;10.77;34.25
73671;BME280;61968;48.178;11.566;2023-04-25T01:32:04;95110.00;;;10.76;34.83
73671;BME280;61968;48.178;11.566;2023-04-25T01:34:31;95111.28;;;10.74;35.12
73671;BME280;61968;48.178;11.566;2023-04-25T01:36:59;95113.84;;;10.69;34.93
73671;BME280;61968;48.178;11.566;2023-04-25T01:39:28;95103.47;;;10.62;35.03
73671;BME280;61968;48.178;11.566;2023-04-25T01:41:54;95107.91;;;10.78;34.91
73671;BME280;61968;48.178;11.566;2023-04-25T01:44:21;95107.41;;;10.81;34.19
73671;BME280;61968;48.178;11.566;2023-04-25T01:46:47;95112.06;;;10.74;34.01
73671;BME280;61968;48.178;11.566;2023-04-25T01:49:14;95105.81;;;10.58;34.07
73671;BME280;61968;48.178;11.566;2023-04-25T01:51:41;95109.81;;;10.61;35.13
73671;BME280;61968;48.178;11.566;2023-04-25T01:54:08;95107.47;;;10.65;34.21
73671;BME280;61968;48.178;11.566;2023-04-25T01:56:38;95111.03;;;10.36;34.52
73671;BME280;61968;48.178;11.566;2023-04-25T01:59:05;95110.59;;;10.23;34.71
73671;BME280;61968;48.178;11.566;2023-04-25T02:01:31;95111.88;;;10.20;35.49
73671;BME280;61968;48.178;11.566;2023-04-25T02:03:58;95112.59;;;10.32;35.74
73671;BME280;61968;48.178;11.566;2023-04-25T02:06:24;95114.53;;;10.20;34.72
73671;BME280;61968;48.178;11.566;2023-04-25T02:08:51;95106.59;;;10.20;34.92
73671;BME280;61968;48.178;11.566;2023-04-25T02:11:17;95096.53;;;10.00;35.96
73671;BME280;61968;48.178;11.566;2023-04-25T02:13:45;95104.28;;;10.24;35.56
73671;BME280;61968;48.178;11.566;2023-04-25T02:16:12;95097.78;;;10.31;34.33
73671;BME280;61968;48.178;11.566;2023-04-25T02:18:38;95102.75;;;10.28;34.25
73671;BME280;61968;48.178;11.566;2023-04-25T02:21:05;95103.06;;;10.31;34.51
73671;BME280;61968;48.178;11.566;2023-04-25T02:23:31;95102.28;;;10.31;34.73
73671;BME280;61968;48.178;11.566;2023-04-25T02:25:58;95105.28;;;10.39;35.47
73671;BME280;61968;48.178;11.566;2023-04-25T02:28:25;95099.75;;;10.63;33.89
73671;BME280;61968;48.178;11.566;2023-04-25T02:30:53;95097.69;;;10.65;34.39
73671;BME280;61968;48.178;11.566;2023-04-25T02:33:19;95096.50;;;10.56;34.17
73671;BME280;61968;48.178;11.566;2023-04-25T02:35:46;95092.25;;;10.55;34.19
73671;BME280;61968;48.178;11.566;2023-04-25T02:38:12;95092.75;;;10.52;34.37
73671;BME280;61968;48.178;11.566;2023-04-25T02:40:39;95101.28;;;10.37;34.24
73671;BME280;61968;48.178;11.566;2023-04-25T02:43:06;95084.69;;;10.42;34.89
73671;BME280;61968;48.178;11.566;2023-04-25T02:45:33;95090.97;;;10.57;34.11
73671;BME280;61968;48.178;11.566;2023-04-25T02:48:02;95095.38;;;10.52;34.51
73671;BME280;61968;48.178;11.566;2023-04-25T02:50:28;95088.50;;;10.51;33.19
73671;BME280;61968;48.178;11.566;2023-04-25T02:52:55;95089.31;;;10.51;34.60
73671;BME280;61968;48.178;11.566;2023-04-25T02:55:21;95091.16;;;10.51;34.19
73671;BME280;61968;48.178;11.566;2023-04-25T02:57:48;95097.22;;;10.29;33.45
73671;BME280;61968;48.178;11.566;2023-04-25T03:00:15;95101.03;;;10.00;34.36
73671;BME280;61968;48.178;11.566;2023-04-25T03:02:41;95099.13;;;9.78;34.36
73671;BME280;61968;48.178;11.566;2023-04-25T03:05:09;95093.16;;;9.71;34.58
73671;BME280;61968;48.178;11.566;2023-04-25T03:07:35;95093.22;;;9.42;34.97
73671;BME280;61968;48.178;11.566;2023-04-25T03:10:05;95091.53;;;9.19;35.41
73671;BME280;61968;48.178;11.566;2023-04-25T03:12:32;95083.75;;;9.13;35.45
73671;BME280;61968;48.178;11.566;2023-04-25T03:14:58;95086.34;;;8.44;37.02
73671;BME280;61968;48.178;11.566;2023-04-25T03:17:25;95089.66;;;8.51;37.39
73671;BME280;61968;48.178;11.566;2023-04-25T03:19:51;95087.50;;;8.36;37.12
73671;BME280;61968;48.178;11.566;2023-04-25T03:22:19;95085.69;;;7.66;38.98
73671;BME280;61968;48.178;11.566;2023-04-25T03:24:46;95066.84;;;8.04;38.46
73671;BME280;61968;48.178;11.566;2023-04-25T03:27:12;95052.75;;;8.10;38.37
73671;BME280;61968;48.178;11.566;2023-04-25T03:29:39;95064.97;;;8.28;37.88
73671;BME280;61968;48.178;11.566;2023-04-25T03:32:05;95078.53;;;8.49;37.91
73671;BME280;61968;48.178;11.566;2023-04-25T03:34:32;95080.31;;;8.31;37.20
73671;BME280;61968;48.178;11.566;2023-04-25T03:36:59;95081.78;;;8.16;37.87
73671;BME280;61968;48.178;11.566;2023-04-25T03:39:27;95081.84;;;7.92;38.63
73671;BME280;61968;48.178;11.566;2023-04-25T03:41:53;95092.34;;;7.92;38.33
73671;BME280;61968;48.178;11.566;2023-04-25T03:44:20;95078.59;;;7.66;39.06
73671;BME280;61968;48.178;11.566;2023-04-25T03:46:46;95075.16;;;7.54;39.06
73671;BME280;61968;48.178;11.566;2023-04-25T03:49:13;95081.00;;;7.56;39.03
73671;BME280;61968;48.178;11.566;2023-04-25T03:51:39;95083.06;;;7.66;38.69
73671;BME280;61968;48.178;11.566;2023-04-25T03:54:06;95070.03;;;7.71;38.82
73671;BME280;61968;48.178;11.566;2023-04-25T03:56:34;95091.00;;;7.48;39.05
73671;BME280;61968;48.178;11.566;2023-04-25T03:59:00;95083.50;;;7.51;39.00
73671;BME280;61968;48.178;11.566;2023-04-25T04:01:27;95068.44;;;7.58;38.93
73671;BME280;61968;48.178;11.566;2023-04-25T04:03:53;95077.94;;;7.71;38.53
73671;BME280;61968;48.178;11.566;2023-04-25T04:06:20;95078.75;;;7.95;38.01
73671;BME280;61968;48.178;11.566;2023-04-25T04:08:46;95076.84;;;8.43;39.14
73671;BME280;61968;48.178;11.566;2023-04-25T04:11:13;95071.78;;;8.53;40.24
73671;BME280;61968;48.178;11.566;2023-04-25T04:13:41;95072.03;;;8.40;38.44
73671;BME280;61968;48.178;11.566;2023-04-25T04:16:07;95079.88;;;8.75;38.80
73671;BME280;61968;48.178;11.566;2023-04-25T04:18:34;95071.69;;;9.17;37.84
73671;BME280;61968;48.178;11.566;2023-04-25T04:21:00;95072.75;;;9.16;37.28
73671;BME280;61968;48.178;11.566;2023-04-25T04:23:27;95071.03;;;9.10;36.20
73671;BME280;61968;48.178;11.566;2023-04-25T04:25:54;95064.47;;;8.95;36.49
73671;BME280;61968;48.178;11.566;2023-04-25T04:28:21;95074.25;;;8.83;36.90
73671;BME280;61968;48.178;11.566;2023-04-25T04:30:49;95074.44;;;8.41;37.55
73671;BME280;61968;48.178;11.566;2023-04-25T04:33:16;95070.50;;;8.67;39.94
73671;BME280;61968;48.178;11.566;2023-04-25T04:35:44;95079.06;;;9.03;36.85
73671;BME280;61968;48.178;11.566;2023-04-25T04:38:12;95078.81;;;8.88;40.93
73671;BME280;61968;48.178;11.566;2023-04-25T04:40:40;95075.47;;;8.92;37.75
73671;BME280;61968;48.178;11.566;2023-04-25T04:43:08;95082.19;;;8.60;41.37
73671;BME280;61968;48.178;11.566;2023-04-25T04:45:35;95087.59;;;8.93;40.45
73671;BME280;61968;48.178;11.566;2023-04-25T04:48:05;95091.06;;;9.39;37.08
73671;BME280;61968;48.178;11.566;2023-04-25T04:50:31;95088.63;;;9.04;37.08
73671;BME280;61968;48.178;11.566;2023-04-25T04:52:59;95085.63;;;8.72;37.70
73671;BME280;61968;48.178;11.566;2023-04-25T04:55:25;95088.50;;;8.58;37.62
73671;BME280;61968;48.178;11.566;2023-04-25T04:57:52;95087.03;;;8.39;40.36
73671;BME280;61968;48.178;11.566;2023-04-25T05:00:18;95079.44;;;8.54;38.00
73671;BME280;61968;48.178;11.566;2023-04-25T05:02:46;95081.47;;;8.76;40.60
73671;BME280;61968;48.178;11.566;2023-04-25T05:05:13;95078.03;;;8.64;37.91
73671;BME280;61968;48.178;11.566;2023-04-25T05:07:40;95072.84;;;8.40;38.76
73671;BME280;61968;48.178;11.566;2023-04-25T05:10:07;95069.69;;;8.55;38.93
73671;BME280;61968;48.178;11.566;2023-04-25T05:12:34;95071.53;;;8.54;40.27
73671;BME280;61968;48.178;11.566;2023-04-25T05:15:01;95075.22;;;8.53;40.68
73671;BME280;61968;48.178;11.566;2023-04-25T05:17:27;95082.63;;;8.04;40.85
73671;BME280;61968;48.178;11.566;2023-04-25T05:19:53;95070.47;;;7.92;39.45
73671;BME280;61968;48.178;11.566;2023-04-25T05:22:22;95069.50;;;7.39;40.75
73671;BME280;61968;48.178;11.566;2023-04-25T05:24:48;95073.78;;;7.63;40.26
73671;BME280;61968;48.178;11.566;2023-04-25T05:27:16;95069.91;;;7.66;40.01
73671;BME280;61968;48.178;11.566;2023-04-25T05:29:43;95076.47;;;7.03;41.56
73671;BME280;61968;48.178;11.566;2023-04-25T05:32:10;95074.13;;;7.13;41.50
73671;BME280;61968;48.178;11.566;2023-04-25T05:34:36;95077.66;;;7.07;41.72
73671;BME280;61968;48.178;11.566;2023-04-25T05:37:03;95082.19;;;7.00;41.98
73671;BME280;61968;48.178;11.566;2023-04-25T05:39:31;95079.50;;;6.40;43.91
73671;BME280;61968;48.178;11.566;2023-04-25T05:41:57;95081.22;;;6.64;43.49
73671;BME280;61968;48.178;11.566;2023-04-25T05:44:24;95081.72;;;6.73;43.70
73671;BME280;61968;48.178;11.566;2023-04-25T05:46:51;95082.44;;;6.98;42.91
73671;BME280;61968;48.178;11.566;2023-04-25T05:49:18;95075.72;;;7.14;42.76
73671;BME280;61968;48.178;11.566;2023-04-25T05:51:44;95082.44;;;6.98;42.90
73671;BME280;61968;48.178;11.566;2023-04-25T05:54:11;95086.94;;;7.21;42.68
73671;BME280;61968;48.178;11.566;2023-04-25T05:56:38;95077.78;;;7.12;42.61
73671;BME280;61968;48.178;11.566;2023-04-25T05:59:05;95089.47;;;7.16;42.73
73671;BME280;61968;48.178;11.566;2023-04-25T06:01:32;95095.78;;;6.97;43.38
73671;BME280;61968;48.178;11.566;2023-04-25T06:03:58;95102.59;;;6.86;42.80
73671;BME280;61968;48.178;11.566;2023-04-25T06:06:25;95096.94;;;5.91;45.22
73671;BME280;61968;48.178;11.566;2023-04-25T06:08:52;95096.44;;;6.00;44.87
73671;BME280;61968;48.178;11.566;2023-04-25T06:11:18;95105.47;;;5.86;45.26
73671;BME280;61968;48.178;11.566;2023-04-25T06:13:46;95099.56;;;5.91;46.08
73671;BME280;61968;48.178;11.566;2023-04-25T06:16:13;95104.16;;;6.39;45.55
73671;BME280;61968;48.178;11.566;2023-04-25T06:18:39;95096.38;;;6.07;45.36
73671;BME280;61968;48.178;11.566;2023-04-25T06:21:06;95090.13;;;6.08;46.37
73671;BME280;61968;48.178;11.566;2023-04-25T06:23:32;95075.72;;;6.36;46.11
73671;BME280;61968;48.178;11.566;2023-04-25T06:25:59;95076.13;;;6.69;44.69
73671;BME280;61968;48.178;11.566;2023-04-25T06:28:25;95073.50;;;7.00;43.42
73671;BME280;61968;48.178;11.566;2023-04-25T06:30:53;95077.16;;;6.98;43.65
73671;BME280;61968;48.178;11.566;2023-04-25T06:33:20;95087.41;;;6.88;44.31
73671;BME280;61968;48.178;11.566;2023-04-25T06:35:46;95086.00;;;6.56;44.53
73671;BME280;61968;48.178;11.566;2023-04-25T06:38:13;95094.38;;;6.46;45.74
73671;BME280;61968;48.178;11.566;2023-04-25T06:40:40;95088.66;;;6.86;44.69
73671;BME280;61968;48.178;11.566;2023-04-25T06:43:06;95089.28;;;7.00;44.14
73671;BME280;61968;48.178;11.566;2023-04-25T06:45:32;95094.31;;;6.71;44.88
73671;BME280;61968;48.178;11.566;2023-04-25T06:48:00;95089.72;;;6.66;45.51
73671;BME280;61968;48.178;11.566;2023-04-25T06:50:27;95096.63;;;6.61;46.09
73671;BME280;61968;48.178;11.566;2023-04-25T06:52:53;95083.88;;;6.46;46.04
73671;BME280;61968;48.178;11.566;2023-04-25T06:55:20;95090.00;;;6.40;46.49
73671;BME280;61968;48.178;11.566;2023-04-25T06:57:46;95087.00;;;6.55;46.73
73671;BME280;61968;48.178;11.566;2023-04-25T07:00:14;95090.53;;;6.30;47.47
73671;BME280;61968;48.178;11.566;2023-04-25T07:02:40;95088.13;;;6.65;46.47
73671;BME280;61968;48.178;11.566;2023-04-25T07:05:10;95088.78;;;6.91;46.53
73671;BME280;61968;48.178;11.566;2023-04-25T07:07:36;95085.50;;;6.28;46.40
73671;BME280;61968;48.178;11.566;2023-04-25T07:10:03;95087.47;;;6.51;47.19
73671;BME280;61968;48.178;11.566;2023-04-25T07:12:30;95087.03;;;6.85;45.53
73671;BME280;61968;48.178;11.566;2023-04-25T07:14:57;95082.38;;;7.17;45.58
73671;BME280;61968;48.178;11.566;2023-04-25T07:17:23;95092.47;;;7.32;44.82
73671;BME280;61968;48.178;11.566;2023-04-25T07:19:50;95087.94;;;7.09;44.97
73671;BME280;61968;48.178;11.566;2023-04-25T07:22:17;95090.47;;;7.15;44.15
73671;BME280;61968;48.178;11.566;2023-04-25T07:24:44;95082.59;;;7.15;43.84
73671;BME280;61968;48.178;11.566;2023-04-25T07:27:13;95078.16;;;7.28;44.12
73671;BME280;61968;48.178;11.566;2023-04-25T07:29:40;95072.06;;;7.57;43.54
73671;BME280;61968;48.178;11.566;2023-04-25T07:32:07;95068.53;;;7.63;43.08
73671;BME280;61968;48.178;11.566;2023-04-25T07:34:33;95072.53;;;7.54;43.56
73671;BME280;61968;48.178;11.566;2023-04-25T07:37:02;95079.97;;;7.57;43.21
73671;BME280;61968;48.178;11.566;2023-04-25T07:39:30;95072.66;;;7.59;43.26
73671;BME280;61968;48.178;11.566;2023-04-25T07:41:57;95072.53;;;7.54;43.81
73671;BME280;61968;48.178;11.566;2023-04-25T07:44:25;95078.38;;;7.56;43.32
73671;BME280;61968;48.178;11.566;2023-04-25T07:46:52;95069.72;;;7.49;43.31
73671;BME280;61968;48.178;11.566;2023-04-25T07:49:18;95063.06;;;7.65;42.28
73671;BME280;61968;48.178;11.566;2023-04-25T07:51:45;95069.91;;;7.66;42.83
73671;BME280;61968;48.178;11.566;2023-04-25T07:54:13;95064.66;;;7.66;42.25
73671;BME280;61968;48.178;11.566;2023-04-25T07:56:41;95065.69;;;7.23;43.33
73671;BME280;61968;48.178;11.566;2023-04-25T07:59:08;95071.06;;;7.16;43.34
73671;BME280;61968;48.178;11.566;2023-04-25T08:01:34;95076.56;;;7.27;43.48
73671;BME280;61968;48.178;11.566;2023-04-25T08:04:01;95070.59;;;7.19;43.66
73671;BME280;61968;48.178;11.566;2023-04-25T08:06:27;95063.13;;;7.47;43.13
73671;BME280;61968;48.178;11.566;2023-04-25T08:08:54;95060.09;;;7.61;43.03
73671;BME280;61968;48.178;11.566;2023-04-25T08:11:20;95056.53;;;7.68;41.95
73671;BME280;61968;48.178;11.566;2023-04-25T08:13:48;95055.97;;;7.65;42.15
73671;BME280;61968;48.178;11.566;2023-04-25T08:16:15;95063.06;;;7.77;42.19
73671;BME280;61968;48.178;11.566;2023-04-25T08:18:41;95064.56;;;7.31;42.67
73671;BME280;61968;48.178;11.566;2023-04-25T08:21:08;95052.44;;;7.30;43.42
73671;BME280;61968;48.178;11.566;2023-04-25T08:23:36;95063.47;;;7.50;42.13
73671;BME280;61968;48.178;11.566;2023-04-25T08:26:03;95062.59;;;7.56;42.38
73671;BME280;61968;48.178;11.566;2023-04-25T08:28:30;95065.66;;;7.53;42.38
73671;BME280;61968;48.178;11.566;2023-04-25T08:30:58;95062.34;;;8.05;41.27
73671;BME280;61968;48.178;11.566;2023-04-25T08:33:24;95059.50;;;7.71;41.18
73671;BME280;61968;48.178;11.566;2023-04-25T08:35:51;95064.41;;;7.79;41.53
73671;BME280;61968;48.178;11.566;2023-04-25T08:38:18;95065.78;;;7.58;42.12
73671;BME280;61968;48.178;11.566;2023-04-25T08:40:49;95071.34;;;7.50;42.06
73671;BME280;61968;48.178;11.566;2023-04-25T08:43:18;95072.03;;;7.46;41.67
73671;BME280;61968;48.178;11.566;2023-04-25T08:45:45;95074.47;;;7.82;40.66
73671;BME280;61968;48.178;11.566;2023-04-25T08:48:14;95065.97;;;8.27;39.86
73671;BME280;61968;48.178;11.566;2023-04-25T08:50:45;95067.78;;;8.50;38.19
73671;BME280;61968;48.178;11.566;2023-04-25T08:53:16;95073.31;;;8.37;37.56
73671;BME280;61968;48.178;11.566;2023-04-25T08:55:45;95076.66;;;8.09;38.51
73671;BME280;61968;48.178;11.566;2023-04-25T08:58:12;95067.50;;;8.23;38.42
73671;BME280;61968;48.178;11.566;2023-04-25T09:00:39;95062.34;;;8.17;37.30
73671;BME280;61968;48.178;11.566;2023-04-25T09:03:06;95070.59;;;8.20;38.25
73671;BME280;61968;48.178;11.566;2023-04-25T09:05:34;95067.75;;;7.98;37.41
73671;BME280;61968;48.178;11.566;2023-04-25T09:08:01;95069.19;;;8.29;37.73
73671;BME280;61968;48.178;11.566;2023-04-25T09:10:28;95072.41;;;8.31;37.11
73671;BME280;61968;48.178;11.566;2023-04-25T09:13:05;95061.50;;;8.40;37.01
73671;BME280;61968;48.178;11.566;2023-04-25T09:15:46;95073.72;;;8.57;36.60
73671;BME280;61968;48.178;11.566;2023-04-25T09:18:13;95074.00;;;8.32;37.04
73671;BME280;61968;48.178;11.566;2023-04-25T09:20:43;95083.59;;;8.50;36.51
73671;BME280;61968;48.178;11.566;2023-04-25T09:23:09;95081.34;;;8.19;35.28
73671;BME280;61968;48.178;11.566;2023-04-25T09:25:36;95074.16;;;8.14;34.64
73671;BME280;61968;48.178;11.566;2023-04-25T09:28:05;95073.50;;;8.59;34.45
73671;BME280;61968;48.178;11.566;2023-04-25T09:30:33;95083.16;;;8.82;34.23
73671;BME280;61968;48.178;11.566;2023-04-25T09:33:04;95076.75;;;8.90;33.73
73671;BME280;61968;48.178;11.566;2023-04-25T09:35:35;95080.81;;;8.69;34.76
73671;BME280;61968;48.178;11.566;2023-04-25T09:38:07;95082.06;;;8.54;34.38
73671;BME280;61968;48.178;11.566;2023-04-25T09:40:33;95087.00;;;8.63;34.25
73671;BME280;61968;48.178;11.566;2023-04-25T09:43:00;95087.50;;;8.36;34.40
73671;BME280;61968;48.178;11.566;2023-04-25T09:45:29;95088.72;;;8.57;34.21
73671;BME280;61968;48.178;11.566;2023-04-25T09:47:56;95082.22;;;8.36;34.94
73671;BME280;61968;48.178;11.566;2023-04-25T09:50:23;95086.09;;;8.45;34.32
73671;BME280;61968;48.178;11.566;2023-04-25T09:53:03;95091.47;;;8.74;34.37
73671;BME280;61968;48.178;11.566;2023-04-25T09:55:31;95088.00;;;9.14;33.97
73671;BME280;61968;48.178;11.566;2023-04-25T09:58:02;95085.25;;;9.09;33.56
73671;BME280;61968;48.178;11.566;2023-04-25T10:00:30;95085.41;;;9.02;33.93
73671;BME280;61968;48.178;11.566;2023-04-25T10:02:57;95083.06;;;8.89;33.90
73671;BME280;61968;48.178;11.566;2023-04-25T10:05:25;95082.81;;;8.90;33.79
73671;BME280;61968;48.178;11.566;2023-04-25T10:07:53;95073.25;;;8.72;34.43
73671;BME280;61968;48.178;11.566;2023-04-25T10:10:23;95076.53;;;9.08;33.69
73671;BME280;61968;48.178;11.566;2023-04-25T10:12:53;95073.75;;;9.15;33.72
73671;BME280;61968;48.178;11.566;2023-04-25T10:15:19;95078.81;;;9.16;33.98
73671;BME280;61968;48.178;11.566;2023-04-25T10:17:46;95073.53;;;9.33;33.97
73671;BME280;61968;48.178;11.566;2023-04-25T10:20:14;95074.13;;;9.35;33.66
73671;BME280;61968;48.178;11.566;2023-04-25T10:22:42;95066.03;;;9.25;34.23
73671;BME280;61968;48.178;11.566;2023-04-25T10:25:10;95067.56;;;9.55;33.26
73671;BME280;61968;48.178;11.566;2023-04-25T10:27:39;95069.47;;;9.42;33.27
73671;BME280;61968;48.178;11.566;2023-04-25T10:30:07;95070.94;;;9.50;33.29
73671;BME280;61968;48.178;11.566;2023-04-25T10:32:36;95067.56;;;9.71;32.37
73671;BME280;61968;48.178;11.566;2023-04-25T10:35:13;95064.81;;;9.16;32.81
73671;BME280;61968;48.178;11.566;2023-04-25T10:37:58;95078.28;;;8.74;33.72
73671;BME280;61968;48.178;11.566;2023-04-25T10:40:25;95088.84;;;9.02;34.58
73671;BME280;61968;48.178;11.566;2023-04-25T10:42:53;95084.38;;;8.51;36.34
73671;BME280;61968;48.178;11.566;2023-04-25T10:45:19;95105.06;;;7.83;37.00
73671;BME280;61968;48.178;11.566;2023-04-25T10:47:46;95121.88;;;7.71;37.14
73671;BME280;61968;48.178;11.566;2023-04-25T10:50:14;95123.94;;;7.92;37.43
73671;BME280;61968;48.178;11.566;2023-04-25T10:52:41;95120.63;;;8.08;37.28
73671;BME280;61968;48.178;11.566;2023-04-25T10:55:08;95134.56;;;7.74;39.04
73671;BME280;61968;48.178;11.566;2023-04-25T10:57:40;95135.56;;;7.61;39.63
73671;BME280;61968;48.178;11.566;2023-04-25T11:00:11;95141.94;;;8.07;39.69
73671;BME280;61968;48.178;11.566;2023-04-25T11:02:42;95145.22;;;8.02;40.95
73671;BME280;61968;48.178;11.566;2023-04-25T11:05:10;95146.50;;;8.11;41.68
73671;BME280;61968;48.178;11.566;2023-04-25T11:07:49;95153.03;;;8.32;40.70
73671;BME280;61968;48.178;11.566;2023-04-25T11:10:16;95148.78;;;8.20;40.39
73671;BME280;61968;48.178;11.566;2023-04-25T11:12:44;95163.56;;;7.55;42.42
73671;BME280;61968;48.178;11.566;2023-04-25T11:15:12;95168.06;;;7.66;41.50
73671;BME280;61968;48.178;11.566;2023-04-25T11:17:39;95158.19;;;8.04;40.79
73671;BME280;61968;48.178;11.566;2023-04-25T11:20:07;95174.03;;;7.43;41.65
73671;BME280;61968;48.178;11.566;2023-04-25T11:22:37;95169.69;;;7.68;42.25
73671;BME280;61968;48.178;11.566;2023-04-25T11:25:08;95181.69;;;7.45;42.31
73671;BME280;61968;48.178;11.566;2023-04-25T11:27:37;95173.31;;;7.66;42.10
73671;BME280;61968;48.178;11.566;2023-04-25T11:30:14;95186.81;;;7.40;41.94
73671;BME280;61968;48.178;11.566;2023-04-25T11:32:41;95180.00;;;7.81;41.06
73671;BME280;61968;48.178;11.566;2023-04-25T11:35:08;95185.16;;;7.87;40.55
73671;BME280;61968;48.178;11.566;2023-04-25T11:37:35;95174.88;;;8.21;39.88
73671;BME280;61968;48.178;11.566;2023-04-25T11:40:02;95183.22;;;8.06;39.45
73671;BME280;61968;48.178;11.566;2023-04-25T11:42:31;95183.81;;;8.08;39.94
73671;BME280;61968;48.178;11.566;2023-04-25T11:44:58;95185.03;;;7.71;41.74
73671;BME280;61968;48.178;11.566;2023-04-25T11:47:29;95182.09;;;8.02;41.53
73671;BME280;61968;48.178;11.566;2023-04-25T11:49:57;95182.13;;;8.26;41.13
73671;BME280;61968;48.178;11.566;2023-04-25T11:52:24;95181.31;;;8.37;40.46
73671;BME280;61968;48.178;11.566;2023-04-25T11:54:51;95189.44;;;8.59;41.05
73671;BME280;61968;48.178;11.566;2023-04-25T11:57:19;95208.09;;;8.10;41.92
73671;BME280;61968;48.178;11.566;2023-04-25T11:59:45;95215.56;;;7.72;43.88
73671;BME280;61968;48.178;11.566;2023-04-25T12:02:23;95221.66;;;7.84;44.69
73671;BME280;61968;48.178;11.566;2023-04-25T12:04:51;95227.91;;;7.41;45.51
73671;BME280;61968;48.178;11.566;2023-04-25T12:07:18;95219.31;;;6.97;45.24
73671;BME280;61968;48.178;11.566;2023-04-25T12:09:51;95230.13;;;6.89;45.96
73671;BME280;61968;48.178;11.566;2023-04-25T12:12:18;95230.97;;;6.64;47.00
73671;BME280;61968;48.178;11.566;2023-04-25T12:14:47;95228.38;;;7.01;50.79
73671;BME280;61968;48.178;11.566;2023-04-25T12:17:14;95227.56;;;7.01;46.60
73671;BME280;61968;48.178;11.566;2023-04-25T12:19:40;95235.44;;;7.19;45.94
73671;BME280;61968;48.178;11.566;2023-04-25T12:22:21;95229.66;;;7.29;44.69
73671;BME280;61968;48.178;11.566;2023-04-25T12:24:47;95224.56;;;6.79;44.95
73671;BME280;61968;48.178;11.566;2023-04-25T12:27:15;95220.69;;;6.63;45.23
73671;BME280;61968;48.178;11.566;2023-04-25T12:29:50;95225.31;;;7.04;45.11
73671;BME280;61968;48.178;11.566;2023-04-25T12:32:17;95233.31;;;7.09;44.85
73671;BME280;61968;48.178;11.566;2023-04-25T12:34:44;95220.06;;;6.86;44.82
73671;BME280;61968;48.178;11.566;2023-04-25T12:37:10;95230.84;;;6.34;45.91
73671;BME280;61968;48.178;11.566;2023-04-25T12:39:38;95226.75;;;6.63;46.42
73671;BME280;61968;48.178;11.566;2023-04-25T12:42:05;95236.75;;;6.73;46.39
73671;BME280;61968;48.178;11.566;2023-04-25T12:44:33;95233.63;;;6.14;46.14
73671;BME280;61968;48.178;11.566;2023-04-25T12:46:59;95230.94;;;6.46;46.49
73671;BME280;61968;48.178;11.566;2023-04-25T12:49:25;95233.75;;;6.88;46.33
73671;BME280;61968;48.178;11.566;2023-04-25T12:51:52;95241.63;;;6.69;46.63
73671;BME280;61968;48.178;11.566;2023-04-25T12:54:18;95245.31;;;6.87;46.31
73671;BME280;61968;48.178;11.566;2023-04-25T12:56:46;95247.25;;;6.91;46.39
73671;BME280;61968;48.178;11.566;2023-04-25T12:59:13;95250.66;;;6.55;47.66